Time;durP1;ratioP1;P1;durP2;ratioP2;P2;SDS_P1;SDS_P2;PMS_P1;PMS_P2;Temp;Humidity;BMP_temperature;BMP_pressure;BME280_temperature;BME280_humidity;BME280_pressure;Samples;Min_cycle;Max_cycle;Signal;HPM_P1;HPM_P2
2022/06/24 00:00:13;;;;;;;14.80;7.20;;;;;;;28.73;100.00;100512.03;4975868;28;20154;-52
2022/06/24 00:02:40;;;;;;;13.60;6.20;;;;;;;28.67;100.00;100502.31;4980768;28;20047;-50
2022/06/24 00:05:10;;;;;;;15.40;5.77;;;;;;;28.81;100.00;100497.47;4979373;28;20035;-47
2022/06/24 00:07:44;;;;;;;11.90;5.63;;;;;;;28.61;100.00;100474.19;4981063;28;20069;-51
2022/06/24 00:10:15;;;;;;;11.00;6.47;;;;;;;28.54;100.00;100460.94;4979107;28;20049;-51
2022/06/24 00:12:40;;;;;;;14.43;6.57;;;;;;;28.51;100.00;100439.59;4975533;28;20027;-53
2022/06/24 00:15:06;;;;;;;;;;;;;;;27.87;100.00;100421.84;4980605;28;20038;-52
2022/06/24 00:17:32;;;;;;;12.10;7.40;;;;;;;28.29;100.00;100410.34;4981934;28;19914;-49
2022/06/24 00:20:05;;;;;;;13.18;6.72;;;;;;;28.48;100.00;100401.72;4981358;28;20042;-51
2022/06/24 00:22:40;;;;;;;17.70;7.37;;;;;;;28.15;100.00;100405.88;4983268;28;20046;-51
2022/06/24 00:25:27;;;;;;;16.13;8.50;;;;;;;27.61;100.00;100417.97;4980309;28;20103;-47
2022/06/24 00:28:07;;;;;;;;;;;;;;;27.46;100.00;100430.19;4978250;28;20090;-49
2022/06/24 00:30:52;;;;;;;15.60;10.20;;;;;;;27.75;100.00;100436.25;5005391;28;19978;-50
2022/06/24 00:33:23;;;;;;;19.13;10.20;;;;;;;28.37;100.00;100442.50;4977895;28;20059;-50
2022/06/24 00:35:51;;;;;;;16.97;11.67;;;;;;;28.42;100.00;100447.88;4978317;28;20035;-49
2022/06/24 00:38:20;;;;;;;19.80;11.50;;;;;;;28.37;100.00;100467.25;4980625;28;20045;-52
2022/06/24 00:40:47;;;;;;;20.43;12.77;;;;;;;27.79;100.00;100497.63;4980350;28;20098;-53
2022/06/24 00:43:24;;;;;;;23.70;12.97;;;;;;;27.18;100.00;100533.91;4980633;28;20046;-52
2022/06/24 00:45:55;;;;;;;23.70;15.87;;;;;;;26.35;100.00;100525.00;4977848;28;20031;-53
2022/06/24 00:48:24;;;;;;;26.93;16.03;;;;;;;26.92;100.00;100534.59;4978330;28;20051;-50
2022/06/24 00:50:50;;;;;;;33.87;18.40;;;;;;;26.30;100.00;100538.84;4981601;28;20044;-52
2022/06/24 00:53:16;;;;;;;37.63;21.15;;;;;;;26.09;100.00;100549.41;4986777;28;20039;-51
2022/06/24 00:55:43;;;;;;;31.38;20.67;;;;;;;26.18;100.00;100592.25;4978502;28;20114;-55
2022/06/24 00:58:18;;;;;;;39.77;23.83;;;;;;;26.15;100.00;100601.06;4977575;28;20035;-52
2022/06/24 01:00:46;;;;;;;37.63;25.60;;;;;;;25.49;100.00;100614.94;4977803;28;20035;-49
2022/06/24 01:03:14;;;;;;;104.90;34.67;;;;;;;25.37;100.00;100688.47;4975871;28;20093;-50
2022/06/24 01:05:40;;;;;;;159.67;35.80;;;;;;;38.86;100.00;100810.63;4977552;28;20043;-51
2022/06/24 01:08:08;;;;;;;65.07;13.23;;;;;;;70.80;100.00;100217.81;4979315;28;20035;-51
2022/06/24 01:11:34;;;;;;;66.43;17.70;;;;;;;-147.27;100.00;65176.34;4979608;28;20043;-54
2022/06/24 01:14:58;;;;;;;1.20;1.10;;;;;;;-147.27;100.00;65176.34;4978603;28;20041;-55
2022/06/24 01:18:23;;;;;;;112.80;24.60;;;;;;;-147.27;100.00;65176.34;4977318;28;20031;-53
2022/06/24 01:20:49;;;;;;;145.17;38.93;;;;;;;-147.27;100.00;65176.34;4977432;28;20042;-54
2022/06/24 01:24:22;;;;;;;93.57;31.23;;;;;;;-147.27;100.00;65176.34;4979239;28;20031;-53
2022/06/24 01:27:47;;;;;;;48.83;21.57;;;;;;;-147.27;100.00;65176.34;4975386;28;20058;-52
2022/06/24 01:31:11;;;;;;;27.07;9.67;;;;;;;-147.27;100.00;65176.34;4979449;28;20035;-47
2022/06/24 01:34:37;;;;;;;9.77;4.67;;;;;;;-147.27;100.00;65176.34;4979883;28;20059;-50
2022/06/24 01:38:01;;;;;;;9.60;4.73;;;;;;;-147.27;100.00;65176.34;4977833;28;20024;-50
2022/06/24 01:41:26;;;;;;;13.43;3.27;;;;;;;-147.27;100.00;65176.34;4981554;28;20069;-51
2022/06/24 01:44:50;;;;;;;5.87;3.07;;;;;;;-147.27;100.00;65176.34;4978912;28;20107;-49
2022/06/24 01:48:14;;;;;;;7.37;4.07;;;;;;;-147.27;100.00;65176.34;4978095;28;20046;-54
2022/06/24 01:51:40;;;;;;;6.93;3.50;;;;;;;-147.27;100.00;65176.34;4978570;28;20269;-50
2022/06/24 01:55:05;;;;;;;7.23;3.53;;;;;;;-147.27;100.00;65176.34;4980260;28;20261;-50
2022/06/24 01:58:29;;;;;;;7.20;2.73;;;;;;;-147.27;100.00;65176.34;4979939;28;20303;-47
2022/06/24 02:01:54;;;;;;;10.10;3.00;;;;;;;-147.27;100.00;65176.34;4975402;28;20276;-51
2022/06/24 02:05:19;;;;;;;6.47;3.50;;;;;;;-147.27;100.00;65176.34;4980374;28;20039;-50
2022/06/24 02:08:44;;;;;;;8.47;4.17;;;;;;;-147.27;100.00;65176.34;4978445;28;20281;-54
2022/06/24 02:15:56;;;;;;;14.53;6.30;;;;;;;-147.27;100.00;65176.34;4973233;28;20270;-49
2022/06/24 02:19:21;;;;;;;20.60;12.33;;;;;;;-147.27;100.00;65176.34;4972155;28;20035;-51
2022/06/24 02:22:46;;;;;;;13.50;7.13;;;;;;;-147.27;100.00;65176.34;4975807;28;20062;-52
2022/06/24 02:26:09;;;;;;;12.43;6.73;;;;;;;-147.27;100.00;65176.34;4977236;28;20054;-47
2022/06/24 02:29:34;;;;;;;11.27;6.20;;;;;;;-147.27;100.00;65176.34;4984737;28;20121;-48
2022/06/24 02:32:57;;;;;;;11.67;6.77;;;;;;;-147.27;100.00;65176.34;4979839;28;20055;-50
2022/06/24 02:36:22;;;;;;;11.77;7.57;;;;;;;-147.27;100.00;65176.34;4978107;28;20090;-53
2022/06/24 02:39:45;;;;;;;15.90;7.63;;;;;;;-147.27;100.00;65176.34;4975872;28;20058;-53
2022/06/24 02:43:13;;;;;;;12.53;6.90;;;;;;;-147.27;100.00;65176.34;4976957;28;20091;-53
2022/06/24 02:46:38;;;;;;;16.30;7.47;;;;;;;-147.27;100.00;65176.34;4981244;28;20035;-54
2022/06/24 02:50:03;;;;;;;17.80;6.90;;;;;;;-147.27;100.00;65176.34;4981287;28;20031;-52
2022/06/24 02:53:10;;;;;;;515.40;36.47;;;;;;;-147.27;100.00;65176.34;4979473;28;20062;-53
2022/06/24 02:56:34;;;;;;;148.47;14.33;;;;;;;-147.27;100.00;65176.34;4977434;28;20042;-51
2022/06/24 02:59:00;;;;;;;43.83;10.07;;;;;;;70.80;100.00;100217.81;4977656;28;20301;-52
2022/06/24 03:01:26;;;;;;;20.83;8.57;;;;;;;32.55;100.00;100574.06;4976583;28;20035;-52
2022/06/24 03:03:51;;;;;;;16.45;8.35;;;;;;;-147.27;100.00;65176.34;4974439;28;20046;-52
2022/06/24 03:06:51;;;;;;;19.52;9.38;;;;;;;-147.27;100.00;65176.34;4974697;28;20090;-53
2022/06/24 03:09:16;;;;;;;18.10;9.27;;;;;;;-147.27;100.00;65176.34;4976161;28;20114;-54
2022/06/24 03:11:41;;;;;;;87.30;16.52;;;;;;;-147.27;100.00;65176.34;4974178;28;20057;-53
2022/06/24 03:14:07;;;;;;;23.20;10.13;;;;;;;-147.27;100.00;65176.34;4977330;28;20039;-53
2022/06/24 03:16:32;;;;;;;22.60;9.80;;;;;;;-147.27;100.00;65176.34;4974235;28;20727;-51
2022/06/24 03:18:58;;;;;;;31.27;17.60;;;;;;;-147.27;100.00;65176.34;4975934;28;20265;-50
2022/06/24 03:21:25;;;;;;;23.30;10.40;;;;;;;-147.27;100.00;65176.34;4973492;28;20074;-51
2022/06/24 03:23:50;;;;;;;20.17;10.80;;;;;;;-147.27;100.00;65176.34;4975288;28;20581;-48
2022/06/24 03:26:16;;;;;;;22.60;10.82;;;;;;;-147.27;100.00;65176.34;4975791;28;20043;-53
2022/06/24 03:28:41;;;;;;;33.67;18.50;;;;;;;-147.27;100.00;65176.34;4976759;28;20063;-50
2022/06/24 03:31:12;;;;;;;27.23;11.70;;;;;;;-147.27;100.00;65176.34;4982926;28;20376;-48
2022/06/24 03:33:37;;;;;;;22.67;9.33;;;;;;;-147.27;100.00;65176.34;4974005;28;20051;-49
2022/06/24 03:36:10;;;;;;;22.10;10.07;;;;;;;-147.27;100.00;65176.34;4976049;28;20043;-51
2022/06/24 03:38:36;;;;;;;16.10;8.73;;;;;;;-147.27;100.00;65176.34;4975736;28;20042;-51
2022/06/24 03:41:01;;;;;;;17.75;9.23;;;;;;;-147.27;100.00;65176.34;4974968;28;20039;-48
2022/06/24 03:43:30;;;;;;;15.57;8.68;;;;;;;-147.27;100.00;65176.34;4976730;28;20115;-52
2022/06/24 03:46:02;;;;;;;22.57;10.30;;;;;;;-147.27;100.00;65176.34;4975418;28;20062;-52
2022/06/24 03:48:31;;;;;;;21.43;10.67;;;;;;;31.57;100.00;100435.72;4976803;28;20046;-53
2022/06/24 03:50:56;;;;;;;19.97;9.97;;;;;;;32.01;100.00;100432.25;4976506;28;20110;-50
2022/06/24 03:53:22;;;;;;;19.58;10.07;;;;;;;31.71;100.00;100435.34;4973718;28;20031;-49
2022/06/24 03:55:49;;;;;;;20.13;11.18;;;;;;;-147.27;100.00;65176.34;4972141;28;20111;-51
2022/06/24 03:58:16;;;;;;;25.03;11.30;;;;;;;-147.27;100.00;65176.34;4976081;28;20032;-53
2022/06/24 04:00:42;;;;;;;29.43;11.53;;;;;;;-147.27;100.00;65176.34;4973718;28;20034;-51
2022/06/24 04:03:08;;;;;;;24.15;11.77;;;;;;;-147.27;100.00;65176.34;4972059;28;20035;-51
2022/06/24 04:05:33;;;;;;;31.35;12.38;;;;;;;-147.27;100.00;65176.34;4965622;28;20147;-54
2022/06/24 04:07:58;;;;;;;22.42;12.15;;;;;;;-147.27;100.00;65176.34;4967822;28;20035;-51
2022/06/24 04:10:25;;;;;;;24.42;11.38;;;;;;;-147.27;100.00;65176.34;4967385;28;20054;-49
2022/06/24 04:12:51;;;;;;;19.83;10.03;;;;;;;-147.27;100.00;65176.34;4971582;28;20061;-51
2022/06/24 04:15:18;;;;;;;20.50;11.43;;;;;;;-147.27;100.00;65176.34;4972354;28;20051;-54
2022/06/24 04:17:44;;;;;;;;;;;;;;;-147.27;100.00;65176.34;4972427;28;20038;-52
2022/06/24 04:20:10;;;;;;;38.20;24.07;;;;;;;-147.27;100.00;65176.34;4973205;28;19914;-52
2022/06/24 04:22:36;;;;;;;43.83;26.95;;;;;;;-147.27;100.00;65176.34;4971617;28;20049;-51
2022/06/24 04:25:02;;;;;;;40.42;24.92;;;;;;;-147.27;100.00;65176.34;4977199;28;20035;-52
2022/06/24 04:27:28;;;;;;;47.20;27.43;;;;;;;-147.27;100.00;65176.34;4973731;28;20142;-53
2022/06/24 04:30:05;;;;;;;95.50;57.33;;;;;;;-147.27;100.00;65176.34;4977296;28;20031;-53
2022/06/24 04:32:31;;;;;;;133.70;71.03;;;;;;;-147.27;100.00;65176.34;4976990;28;20051;-48
2022/06/24 04:34:56;;;;;;;156.13;87.65;;;;;;;-147.27;100.00;65176.34;4973273;28;20046;-50
2022/06/24 04:37:22;;;;;;;90.78;50.28;;;;;;;-147.27;100.00;65176.34;4972664;28;20086;-52
2022/06/24 04:39:47;;;;;;;34.33;18.75;;;;;;;-147.27;100.00;65176.34;4972049;28;20039;-52
2022/06/24 04:42:12;;;;;;;43.95;25.48;;;;;;;-147.27;100.00;65176.34;4972651;28;20032;-53
2022/06/24 04:44:38;;;;;;;38.15;20.75;;;;;;;-147.27;100.00;65176.34;4973085;28;20084;-48
2022/06/24 04:47:04;;;;;;;22.40;13.25;;;;;;;-147.27;100.00;65176.34;4974403;28;20074;-52
2022/06/24 04:49:29;;;;;;;21.10;11.27;;;;;;;-147.27;100.00;65176.34;4975829;28;20043;-50
2022/06/24 04:51:55;;;;;;;21.10;11.05;;;;;;;-147.27;100.00;65176.34;4977563;28;20056;-52
2022/06/24 04:54:21;;;;;;;21.80;12.40;;;;;;;-147.27;100.00;65176.34;4976704;28;20031;-51
2022/06/24 04:56:46;;;;;;;;;;;;;;;-147.27;100.00;65176.34;4976367;28;20070;-51
2022/06/24 04:59:12;;;;;;;22.93;14.10;;;;;;;-147.27;100.00;65176.34;4979156;28;19918;-51
2022/06/24 05:01:38;;;;;;;21.35;11.70;;;;;;;-147.27;100.00;65176.34;4975954;28;20102;-47
2022/06/24 05:04:03;;;;;;;20.60;12.00;;;;;;;-147.27;100.00;65176.34;4976243;28;20054;-50
2022/06/24 05:06:29;;;;;;;23.75;12.60;;;;;;;-147.27;100.00;65176.34;4978362;28;20042;-48
2022/06/24 05:08:55;;;;;;;;;;;;;;;-147.27;100.00;65176.34;4975928;28;20050;-50
2022/06/24 05:11:21;;;;;;;24.00;11.63;;;;;;;-147.27;100.00;65176.34;4976800;28;19977;-49
2022/06/24 05:13:47;;;;;;;22.95;12.02;;;;;;;-147.27;100.00;65176.34;4979283;28;20035;-53
2022/06/24 05:16:12;;;;;;;21.45;10.93;;;;;;;-147.27;100.00;65176.34;4976337;28;20035;-53
2022/06/24 05:18:38;;;;;;;22.83;12.25;;;;;;;-147.27;100.00;65176.34;4975793;28;20114;-50
2022/06/24 05:21:03;;;;;;;19.25;11.38;;;;;;;-147.27;100.00;65176.34;4978497;28;20054;-50
2022/06/24 05:23:29;;;;;;;18.30;10.73;;;;;;;-147.27;100.00;65176.34;4975519;28;20046;-52
2022/06/24 05:25:55;;;;;;;;;;;;;;;-147.27;100.00;65176.34;4978263;28;20065;-48
2022/06/24 05:28:21;;;;;;;21.10;11.17;;;;;;;-147.27;100.00;65176.34;4977458;28;19918;-48
2022/06/24 05:30:47;;;;;;;22.05;11.25;;;;;;;-147.27;100.00;65176.34;4979033;28;20023;-49
2022/06/24 05:33:12;;;;;;;18.23;10.23;;;;;;;-147.27;100.00;65176.34;4978524;28;20074;-50
2022/06/24 05:35:38;;;;;;;22.10;11.45;;;;;;;-147.27;100.00;65176.34;4977729;28;20106;-51
2022/06/24 05:38:03;;;;;;;23.05;10.80;;;;;;;-147.27;100.00;65176.34;4975873;28;20103;-46
2022/06/24 05:40:29;;;;;;;20.73;11.52;;;;;;;-147.27;100.00;65176.34;4978822;28;20050;-52
2022/06/24 05:42:54;;;;;;;22.45;10.98;;;;;;;-147.27;100.00;65176.34;4977047;28;20035;-51
2022/06/24 05:45:20;;;;;;;18.38;10.43;;;;;;;-147.27;100.00;65176.34;4974354;28;20043;-50
2022/06/24 05:47:45;;;;;;;17.13;10.57;;;;;;;-147.27;100.00;65176.34;4975718;28;20058;-53
2022/06/24 05:50:10;;;;;;;19.63;10.02;;;;;;;-147.27;100.00;65176.34;4977072;28;20046;-53
2022/06/24 05:55:21;;;;;;;17.27;9.47;;;;;;;-147.27;100.00;65176.34;4975090;28;20054;-47
2022/06/24 05:57:47;;;;;;;21.60;11.40;;;;;;;-147.27;100.00;65176.34;4978957;28;20041;-49
2022/06/24 06:00:12;;;;;;;19.65;9.13;;;;;;;-147.27;100.00;65176.34;4977659;28;20043;-52
2022/06/24 06:02:38;;;;;;;;;;;;;;;-147.27;100.00;65176.34;4976179;28;20039;-50
2022/06/24 06:05:04;;;;;;;18.17;9.60;;;;;;;-147.27;100.00;65176.34;4977591;28;19921;-47
2022/06/24 06:07:29;;;;;;;19.70;10.13;;;;;;;-147.27;100.00;65176.34;4977439;28;20044;-48
2022/06/24 06:09:56;;;;;;;15.88;9.93;;;;;;;-147.27;100.00;65176.34;4976427;28;20043;-49
2022/06/24 06:12:22;;;;;;;15.27;9.87;;;;;;;-147.27;100.00;65176.34;4975042;28;20055;-52
2022/06/24 06:14:47;;;;;;;;;;;;;;;-147.27;100.00;65176.34;4975013;28;20039;-50
2022/06/24 06:17:13;;;;;;;18.30;9.80;;;;;;;-147.27;100.00;65176.34;4977701;28;19964;-50
2022/06/24 06:19:39;;;;;;;17.55;10.82;;;;;;;-147.27;100.00;65176.34;4975467;28;20049;-51
2022/06/24 06:22:05;;;;;;;18.58;12.18;;;;;;;-147.27;100.00;65176.34;4974913;28;20034;-52
2022/06/24 06:24:30;;;;;;;21.33;13.20;;;;;;;-147.27;100.00;65176.34;4976808;28;20035;-49
2022/06/24 06:26:57;;;;;;;21.23;12.98;;;;;;;-147.27;100.00;65176.34;4976069;28;20035;-53
2022/06/24 06:29:23;;;;;;;23.23;15.20;;;;;;;-147.27;100.00;65176.34;4977445;28;20054;-51
2022/06/24 06:31:50;;;;;;;26.38;15.30;;;;;;;-147.27;100.00;65176.34;4976150;28;20058;-48
2022/06/24 06:34:19;;;;;;;29.40;16.37;;;;;;;-147.27;100.00;65176.34;4975233;28;20094;-51
2022/06/24 06:36:44;;;;;;;23.43;15.17;;;;;;;-147.27;100.00;65176.34;4978577;28;20110;-49
2022/06/24 06:39:10;;;;;;;23.23;13.77;;;;;;;-147.27;100.00;65176.34;4975059;28;20108;-52
2022/06/24 06:41:36;;;;;;;28.98;14.85;;;;;;;-147.27;100.00;65176.34;4976996;28;20035;-47
2022/06/24 06:44:01;;;;;;;30.97;18.57;;;;;;;-147.27;100.00;65176.34;4971565;28;20106;-50
2022/06/24 06:46:28;;;;;;;40.60;23.93;;;;;;;-147.27;100.00;65176.34;4974649;28;20270;-53
2022/06/24 06:48:54;;;;;;;33.88;21.40;;;;;;;-147.27;100.00;65176.34;4978171;28;20035;-50
2022/06/24 06:51:19;;;;;;;32.20;19.58;;;;;;;-147.27;100.00;65176.34;4974899;28;20047;-52
2022/06/24 06:53:45;;;;;;;30.20;18.63;;;;;;;-147.27;100.00;65176.34;4973939;28;20031;-50
2022/06/24 06:56:10;;;;;;;26.95;16.98;;;;;;;-147.27;100.00;65176.34;4975051;28;20035;-50
2022/06/24 06:58:36;;;;;;;23.92;16.77;;;;;;;-147.27;100.00;65176.34;4977919;28;20042;-50
2022/06/24 07:01:01;;;;;;;27.20;18.75;;;;;;;-147.27;100.00;65176.34;4967238;28;20054;-54
2022/06/24 07:03:27;;;;;;;22.67;17.05;;;;;;;-147.27;100.00;65176.34;4975733;28;20031;-51
2022/06/24 07:05:52;;;;;;;21.08;15.80;;;;;;;-147.27;100.00;65176.34;4976701;28;20054;-53
2022/06/24 07:08:18;;;;;;;26.15;16.75;;;;;;;-147.27;100.00;65176.34;4975345;28;20043;-51
2022/06/24 07:10:44;;;;;;;26.38;17.73;;;;;;;-147.27;100.00;65176.34;4978225;28;20102;-47
2022/06/24 07:13:11;;;;;;;26.47;17.80;;;;;;;-147.27;100.00;65176.34;4979532;28;20046;-56
2022/06/24 07:15:37;;;;;;;25.20;18.77;;;;;;;-147.27;100.00;65176.34;4974832;28;20027;-51
2022/06/24 07:18:03;;;;;;;27.83;20.15;;;;;;;-147.27;100.00;65176.34;4980938;28;20118;-52
2022/06/24 07:20:29;;;;;;;;;;;;;;;-147.27;100.00;65176.34;4979956;28;20034;-51
2022/06/24 07:22:54;;;;;;;31.60;20.67;;;;;;;-147.27;100.00;65176.34;4978175;28;20030;-51
2022/06/24 07:25:20;;;;;;;30.00;20.65;;;;;;;-147.27;100.00;65176.34;4980074;28;20074;-51
2022/06/24 07:27:46;;;;;;;29.17;21.15;;;;;;;-147.27;100.00;65176.34;4978216;28;20046;-51
2022/06/24 07:30:12;;;;;;;34.55;22.55;;;;;;;-147.27;100.00;65176.34;4973932;28;20062;-49
2022/06/24 07:32:37;;;;;;;29.77;21.83;;;;;;;-147.27;100.00;65176.34;4979044;28;20066;-53
2022/06/24 07:35:03;;;;;;;32.00;23.40;;;;;;;-147.27;100.00;65176.34;4982984;28;20117;-52
2022/06/24 07:37:29;;;;;;;36.25;24.25;;;;;;;-147.27;100.00;65176.34;4976470;28;20089;-50
2022/06/24 07:39:54;;;;;;;35.70;24.10;;;;;;;-147.27;100.00;65176.34;4978889;28;20050;-49
2022/06/24 07:42:20;;;;;;;33.75;24.40;;;;;;;-147.27;100.00;65176.34;4979454;28;20099;-49
2022/06/24 07:44:47;;;;;;;34.80;23.65;;;;;;;-147.27;100.00;65176.34;4981306;28;20062;-49
2022/06/24 07:47:13;;;;;;;32.50;22.93;;;;;;;-147.27;100.00;65176.34;4982104;28;20058;-50
2022/06/24 07:49:39;;;;;;;;;;;;;;;-147.27;100.00;65176.34;4982606;28;20061;-49
2022/06/24 07:52:07;;;;;;;36.80;23.13;;;;;;;-147.27;100.00;65176.34;4979293;28;19914;-50
2022/06/24 07:54:32;;;;;;;35.57;24.53;;;;;;;-147.27;100.00;65176.34;4976950;28;20027;-53
2022/06/24 07:56:58;;;;;;;32.97;23.63;;;;;;;-147.27;100.00;65176.34;4980651;28;20059;-48
2022/06/24 07:59:32;;;;;;;34.80;25.58;;;;;;;-147.27;100.00;65176.34;4974944;28;20066;-51
2022/06/24 08:02:00;;;;;;;35.70;24.70;;;;;;;-147.27;100.00;65176.34;4978973;28;20095;-52
2022/06/24 08:04:27;;;;;;;29.87;23.20;;;;;;;-147.27;100.00;65176.34;5002488;28;20045;-49
2022/06/24 08:06:53;;;;;;;33.80;23.93;;;;;;;-147.27;100.00;65176.34;4973559;28;20107;-53
2022/06/24 08:09:20;;;;;;;36.63;24.08;;;;;;;-147.27;100.00;65176.34;4980084;28;20062;-51
2022/06/24 08:11:46;;;;;;;33.63;25.07;;;;;;;-147.27;100.00;65176.34;4981493;28;20035;-49
2022/06/24 08:14:13;;;;;;;;;;;;;;;-147.27;100.00;65176.34;4974623;28;20042;-51
2022/06/24 08:16:38;;;;;;;33.92;23.83;;;;;;;-147.27;100.00;65176.34;4977209;28;20006;-51
2022/06/24 08:19:04;;;;;;;37.88;25.65;;;;;;;-147.27;100.00;65176.34;4979062;28;20038;-49
2022/06/24 08:21:30;;;;;;;40.10;25.65;;;;;;;-147.27;100.00;65176.34;4979992;28;20031;-47
2022/06/24 08:23:55;;;;;;;36.40;25.17;;;;;;;-147.27;100.00;65176.34;4980785;28;20058;-51
2022/06/24 08:26:21;;;;;;;37.08;25.27;;;;;;;-147.27;100.00;65176.34;4981109;28;20058;-51
2022/06/24 08:28:46;;;;;;;29.55;20.67;;;;;;;-147.27;100.00;65176.34;4981925;28;20077;-51
2022/06/24 08:31:12;;;;;;;33.90;22.23;;;;;;;-147.27;100.00;65176.34;4981044;28;20050;-50
2022/06/24 08:33:38;;;;;;;36.10;26.20;;;;;;;-147.27;100.00;65176.34;4981453;28;20074;-52
2022/06/24 08:36:05;;;;;;;32.97;25.85;;;;;;;-147.27;100.00;65176.34;4981065;28;20091;-54
2022/06/24 08:38:31;;;;;;;37.37;23.43;;;;;;;-147.27;100.00;65176.34;4981331;28;20043;-51
2022/06/24 08:41:00;;;;;;;33.72;23.83;;;;;;;-147.27;100.00;65176.34;4979567;28;20031;-50
2022/06/24 08:43:30;;;;;;;30.93;21.13;;;;;;;-147.27;100.00;65176.34;4979427;28;20043;-47
2022/06/24 08:45:57;;;;;;;28.90;20.77;;;;;;;-147.27;100.00;65176.34;4980626;28;20035;-50
2022/06/24 08:48:26;;;;;;;30.17;22.33;;;;;;;-147.27;100.00;65176.34;4979255;28;20027;-50
2022/06/24 08:50:52;;;;;;;33.30;22.27;;;;;;;-147.27;100.00;65176.34;4977568;28;20030;-48
2022/06/24 08:53:21;;;;;;;31.52;21.55;;;;;;;-147.27;100.00;65176.34;4982023;28;20066;-50
2022/06/24 08:55:50;;;;;;;37.33;23.67;;;;;;;-147.27;100.00;65176.34;4980544;28;20030;-47
2022/06/24 08:58:17;;;;;;;32.93;23.73;;;;;;;-147.27;100.00;65176.34;4976135;28;20031;-47
2022/06/24 09:00:43;;;;;;;38.23;24.33;;;;;;;-147.27;100.00;65176.34;4976945;28;20043;-53
2022/06/24 09:03:10;;;;;;;31.40;21.77;;;;;;;-147.27;100.00;65176.34;4977697;28;20061;-50
2022/06/24 09:05:36;;;;;;;;;;;;;;;-147.27;100.00;65176.34;4980245;28;20043;-51
2022/06/24 09:08:06;;;;;;;17.73;12.13;;;;;;;-147.27;100.00;65176.34;4976808;28;19925;-51
2022/06/24 09:10:34;;;;;;;16.53;11.33;;;;;;;-147.27;100.00;65176.34;4978881;28;20035;-48
2022/06/24 09:13:00;;;;;;;15.80;10.43;;;;;;;-147.27;100.00;65176.34;4979290;28;20053;-49
2022/06/24 09:15:26;;;;;;;16.95;9.60;;;;;;;-147.27;100.00;65176.34;4979602;28;20040;-49
2022/06/24 09:17:54;;;;;;;13.67;10.20;;;;;;;-147.27;100.00;65176.34;4979022;28;20037;-48
2022/06/24 09:20:29;;;;;;;14.43;10.80;;;;;;;-147.27;100.00;65176.34;4979210;28;20035;-50
2022/06/24 09:23:07;;;;;;;15.70;10.60;;;;;;;-147.27;100.00;65176.34;4979211;28;20041;-49
2022/06/24 09:25:48;;;;;;;15.97;9.17;;;;;;;-147.27;100.00;65176.34;4976262;28;20027;-49
2022/06/24 09:28:22;;;;;;;14.33;9.93;;;;;;;-147.27;100.00;65176.34;4975494;28;20065;-47
2022/06/24 09:30:49;;;;;;;15.03;9.47;;;;;;;-147.27;100.00;65176.34;4976363;28;20043;-48
2022/06/24 09:33:17;;;;;;;12.03;8.50;;;;;;;-147.27;100.00;65176.34;4977872;28;20121;-50
2022/06/24 09:35:43;;;;;;;10.77;6.63;;;;;;;-147.27;100.00;65176.34;4979850;28;20035;-47
2022/06/24 09:38:08;;;;;;;11.80;7.00;;;;;;;-147.27;100.00;65176.34;4978403;28;20032;-51
2022/06/24 09:40:33;;;;;;;;;;;;;;;-147.27;100.00;65176.34;4981176;28;20057;-51
2022/06/24 09:42:59;;;;;;;10.07;6.03;;;;;;;-147.27;100.00;65176.34;4978272;28;19915;-50
2022/06/24 09:45:42;;;;;;;9.63;6.27;;;;;;;-147.27;100.00;65176.34;4982777;28;20148;-50
2022/06/24 09:48:09;;;;;;;9.83;6.03;;;;;;;-147.27;100.00;65176.34;4981090;28;20039;-54
2022/06/24 09:50:34;;;;;;;;;;;;;;;-147.27;100.00;65176.34;4980031;28;20055;-51
2022/06/24 09:53:01;;;;;;;10.27;6.43;;;;;;;-147.27;100.00;65176.34;4983086;28;19914;-52
2022/06/24 09:55:28;;;;;;;13.80;9.40;;;;;;;-147.27;100.00;65176.34;4977594;28;20047;-52
2022/06/24 09:57:53;;;;;;;;;;;;;;;-147.27;100.00;65176.34;4979181;28;20052;-54
2022/06/24 10:03:07;;;;;;;10.17;7.33;;;;;;;-147.27;100.00;65176.34;4979803;28;20030;-50
2022/06/24 10:05:35;;;;;;;12.60;7.50;;;;;;;-147.27;100.00;65176.34;4980396;28;20050;-48
2022/06/24 10:08:03;;;;;;;14.23;8.37;;;;;;;-147.27;100.00;65176.34;4975490;28;20035;-51
2022/06/24 10:10:31;;;;;;;14.50;9.73;;;;;;;-147.27;100.00;65176.34;4978731;28;20096;-51
2022/06/24 10:13:03;;;;;;;16.87;9.43;;;;;;;-147.27;100.00;65176.34;4982750;28;20118;-50
2022/06/24 10:15:28;;;;;;;14.20;10.50;;;;;;;-147.27;100.00;65176.34;4974901;28;20077;-54
2022/06/24 10:17:54;;;;;;;;;;;;;;;-147.27;100.00;65176.34;4984523;28;20035;-50
2022/06/24 10:20:20;;;;;;;15.48;10.40;;;;;;;-147.27;100.00;65176.34;4980253;28;19949;-54
2022/06/24 10:22:50;;;;;;;13.50;9.80;;;;;;;-147.27;100.00;65176.34;4975369;28;20031;-53
2022/06/24 10:25:48;;;;;;;14.02;8.70;;;;;;;-147.27;100.00;65176.34;4978224;28;20049;-51
2022/06/24 10:28:13;;;;;;;;;;;;;;;-147.27;100.00;65176.34;4978964;28;20075;-51
2022/06/24 10:30:39;;;;;;;13.35;8.52;;;;;;;-147.27;100.00;65176.34;4974819;28;20005;-50
2022/06/24 10:33:19;;;;;;;12.93;9.25;;;;;;;-147.27;100.00;65176.34;4978821;28;20063;-50
2022/06/24 10:35:55;;;;;;;15.10;11.82;;;;;;;-147.27;100.00;65176.34;4979468;28;20031;-50
2022/06/24 10:38:23;;;;;;;20.45;10.90;;;;;;;-147.27;100.00;65176.34;4978961;28;20035;-48
2022/06/24 10:40:50;;;;;;;18.33;11.07;;;;;;;-147.27;100.00;65176.34;4988898;28;20899;-52
2022/06/24 10:43:40;;;;;;;15.00;10.77;;;;;;;-147.27;100.00;65176.34;4979793;28;20087;-52
2022/06/24 10:46:16;;;;;;;14.52;11.52;;;;;;;-147.27;100.00;65176.34;4981470;28;20042;-47
2022/06/24 10:48:57;;;;;;;14.50;10.98;;;;;;;-147.27;100.00;65176.34;4976147;28;20043;-51
2022/06/24 10:51:22;;;;;;;16.08;11.38;;;;;;;-147.27;100.00;65176.34;4977204;28;20047;-50
2022/06/24 10:54:01;;;;;;;13.88;11.23;;;;;;;-147.27;100.00;65176.34;4996964;28;20038;-47
2022/06/24 10:56:42;;;;;;;16.70;12.30;;;;;;;-147.27;100.00;65176.34;4975717;28;20031;-53
2022/06/24 10:59:09;;;;;;;16.98;13.63;;;;;;;-147.27;100.00;65176.34;4982820;28;20087;-51
2022/06/24 11:01:40;;;;;;;17.95;13.00;;;;;;;-147.27;100.00;65176.34;4974763;28;20032;-51
2022/06/24 11:04:08;;;;;;;36.83;12.18;;;;;;;-147.27;100.00;65176.34;4977681;28;20035;-50
2022/06/24 11:06:33;;;;;;;22.35;16.70;;;;;;;-147.27;100.00;65176.34;4977163;28;20031;-53
2022/06/24 11:09:06;;;;;;;22.88;16.80;;;;;;;-147.27;100.00;65176.34;4981368;28;20039;-50
2022/06/24 11:11:33;;;;;;;23.13;16.70;;;;;;;-147.27;100.00;65176.34;4975101;28;20039;-51
2022/06/24 11:13:58;;;;;;;20.50;16.17;;;;;;;-147.27;100.00;65176.34;4979975;28;20030;-50
2022/06/24 11:16:25;;;;;;;;;;;;;;;-147.27;100.00;65176.34;4976603;28;20023;-47
2022/06/24 11:18:51;;;;;;;21.77;14.57;;;;;;;-147.27;100.00;65176.34;4989620;28;19915;-49
2022/06/24 11:21:18;;;;;;;;;;;;;;;-147.27;100.00;65176.34;4978357;28;20121;-48
2022/06/24 11:23:46;;;;;;;58.90;28.73;;;;;;;-147.27;100.00;65176.34;4980374;28;19914;-51
2022/06/24 11:26:15;;;;;;;133.33;39.90;;;;;;;-147.27;100.00;65176.34;4981862;28;20057;-50
2022/06/24 11:28:43;;;;;;;92.23;36.87;;;;;;;-147.27;100.00;65176.34;4980053;28;20024;-51
2022/06/24 11:31:23;;;;;;;78.13;38.07;;;;;;;-147.27;100.00;65176.34;4981017;28;20039;-50
2022/06/24 11:33:52;;;;;;;104.80;46.13;;;;;;;-147.27;100.00;65176.34;4979843;28;20055;-52
2022/06/24 11:36:21;;;;;;;115.93;53.80;;;;;;;-147.27;100.00;65176.34;4974170;28;20042;-50
2022/06/24 11:38:57;;;;;;;146.80;60.33;;;;;;;-147.27;100.00;65176.34;4974956;28;20100;-49
2022/06/24 11:41:24;;;;;;;145.13;60.10;;;;;;;-147.27;100.00;65176.34;4979148;28;20054;-50